Time,TemperatureF,DewpointF,PressureIn,WindDirection,WindDirectionDegrees,WindSpeedMPH,WindSpeedGustMPH,Humidity,HourlyPrecipIn,Conditions,Clouds,dailyrainin,SolarRadiationWatts/m^2,SoftwareType,DateUTC
2013-09-06 00:01:00,66.0,60.1,30.05,NNE,25,0.0,3.0,81,0.00,,,0.00,0.0,meteohub,2013-09-06 04:01:00,
2013-09-06 00:02:00,66.0,60.1,30.05,NNE,25,0.0,3.0,81,0.00,,,0.00,0.0,meteohub,2013-09-06 04:02:00,
2013-09-06 00:06:00,66.0,60.1,30.05,NNE,25,0.0,3.0,81,0.00,,,0.00,0.0,meteohub,2013-09-06 04:06:00,
2013-09-06 00:11:00,65.8,59.2,30.05,NNE,25,2.0,3.0,79,0.00,,,0.00,0.0,meteohub,2013-09-06 04:11:00,
2013-09-06 00:16:00,65.8,58.8,30.05,NNE,25,0.0,2.0,78,0.00,,,0.00,0.0,meteohub,2013-09-06 04:16:00,
2013-09-06 00:21:00,65.8,58.5,30.05,NNE,25,1.0,2.0,77,0.00,,,0.00,0.0,meteohub,2013-09-06 04:21:00,
2013-09-06 00:26:00,65.8,58.1,30.05,NNE,25,1.0,2.0,76,0.00,,,0.00,0.0,meteohub,2013-09-06 04:26:00,
2013-09-06 00:31:00,65.8,58.5,30.05,NNE,25,1.0,2.0,77,0.00,,,0.00,0.0,meteohub,2013-09-06 04:31:00,
2013-09-06 00:37:00,66.0,59.0,30.05,NNE,25,2.0,2.0,78,0.00,,,0.00,0.0,meteohub,2013-09-06 04:37:00,
2013-09-06 00:42:00,66.0,59.0,30.05,NNE,25,1.0,2.0,78,0.00,,,0.00,0.0,meteohub,2013-09-06 04:42:00,
2013-09-06 00:47:00,66.0,58.3,30.05,NNE,25,1.0,2.0,76,0.00,,,0.00,0.0,meteohub,2013-09-06 04:47:00,
2013-09-06 00:52:00,66.0,57.9,30.05,NNE,25,1.0,2.0,75,0.00,,,0.00,0.0,meteohub,2013-09-06 04:52:00,
2013-09-06 00:57:00,66.2,58.1,30.04,NNE,25,0.0,2.0,75,0.00,,,0.00,0.0,meteohub,2013-09-06 04:57:00,
2013-09-06 01:02:00,66.4,58.6,30.04,NNE,25,0.0,2.0,76,0.00,,,0.00,0.0,meteohub,2013-09-06 05:02:00,
2013-09-06 01:07:00,66.4,58.6,30.05,NNE,25,1.0,2.0,76,0.00,,,0.00,0.0,meteohub,2013-09-06 05:07:00,
2013-09-06 01:12:00,66.4,58.6,30.04,NNE,25,1.0,2.0,76,0.00,,,0.00,0.0,meteohub,2013-09-06 05:12:00,
2013-09-06 01:17:00,66.4,58.3,30.04,NNE,25,1.0,2.0,75,0.00,,,0.00,0.0,meteohub,2013-09-06 05:17:00,
2013-09-06 01:22:00,66.4,57.9,30.05,North,355,0.0,2.0,74,0.00,,,0.00,0.0,meteohub,2013-09-06 05:22:00,
2013-09-06 01:27:00,66.4,57.9,30.04,North,355,1.0,3.0,74,0.00,,,0.00,0.0,meteohub,2013-09-06 05:27:00,
2013-09-06 01:32:00,66.4,57.4,30.05,North,355,1.0,3.0,73,0.00,,,0.00,0.0,meteohub,2013-09-06 05:32:00,
2013-09-06 01:37:00,66.6,58.1,30.04,North,355,0.0,3.0,74,0.00,,,0.00,0.0,meteohub,2013-09-06 05:37:00,
2013-09-06 01:42:00,66.6,57.2,30.04,North,5,1.0,2.0,72,0.00,,,0.00,0.0,meteohub,2013-09-06 05:42:00,
2013-09-06 01:47:00,66.7,57.4,30.04,North,9,1.0,3.0,72,0.00,,,0.00,0.0,meteohub,2013-09-06 05:47:00,
2013-09-06 01:52:00,66.7,57.4,30.04,North,5,0.0,3.0,72,0.00,,,0.00,0.0,meteohub,2013-09-06 05:52:00,
2013-09-06 01:57:00,66.7,58.6,30.04,North,9,0.0,3.0,75,0.00,,,0.00,0.0,meteohub,2013-09-06 05:57:00,
2013-09-06 02:02:00,66.7,58.6,30.04,North,9,0.0,3.0,75,0.00,,,0.00,0.0,meteohub,2013-09-06 06:02:00,
2013-09-06 02:07:00,66.6,57.6,30.05,North,9,1.0,3.0,73,0.00,,,0.00,0.0,meteohub,2013-09-06 06:07:00,
2013-09-06 02:12:00,66.6,56.8,30.05,North,9,0.0,2.0,71,0.00,,,0.00,0.0,meteohub,2013-09-06 06:12:00,
2013-09-06 02:17:00,66.4,57.9,30.05,East,94,0.0,2.0,74,0.00,,,0.00,0.0,meteohub,2013-09-06 06:17:00,
2013-09-06 02:22:00,66.0,57.9,30.05,East,94,1.0,2.0,75,0.00,,,0.00,0.0,meteohub,2013-09-06 06:22:00,
2013-09-06 02:27:00,65.8,58.1,30.04,East,94,0.0,2.0,76,0.00,,,0.00,0.0,meteohub,2013-09-06 06:27:00,
2013-09-06 02:32:00,65.7,57.9,30.05,East,94,0.0,2.0,76,0.00,,,0.00,0.0,meteohub,2013-09-06 06:32:00,
2013-09-06 02:37:00,65.3,57.6,30.05,East,94,1.0,2.0,76,0.00,,,0.00,0.0,meteohub,2013-09-06 06:37:00,
2013-09-06 02:42:00,64.9,57.2,30.05,East,82,1.0,2.0,76,0.00,,,0.00,0.0,meteohub,2013-09-06 06:42:00,
2013-09-06 02:47:00,64.6,58.3,30.05,NE,41,3.0,3.0,80,0.00,,,0.00,0.0,meteohub,2013-09-06 06:47:00,
2013-09-06 02:52:00,64.0,57.7,30.05,NNE,18,2.0,4.0,80,0.00,,,0.00,0.0,meteohub,2013-09-06 06:52:00,
2013-09-06 02:57:00,63.7,57.7,30.05,NNE,18,2.0,4.0,81,0.00,,,0.00,0.0,meteohub,2013-09-06 06:57:00,
2013-09-06 03:02:00,63.5,57.6,30.05,North,355,2.0,4.0,81,0.00,,,0.00,0.0,meteohub,2013-09-06 07:02:00,
2013-09-06 03:07:00,63.3,57.7,30.05,North,355,1.0,4.0,82,0.00,,,0.00,0.0,meteohub,2013-09-06 07:07:00,
2013-09-06 03:12:00,63.1,57.6,30.04,North,0,3.0,4.0,82,0.00,,,0.00,0.0,meteohub,2013-09-06 07:12:00,
2013-09-06 03:17:00,62.8,56.5,30.04,North,0,1.0,4.0,80,0.00,,,0.00,0.0,meteohub,2013-09-06 07:17:00,
2013-09-06 03:22:00,62.4,55.8,30.04,North,0,2.0,3.0,79,0.00,,,0.00,0.0,meteohub,2013-09-06 07:22:00,
2013-09-06 03:27:00,62.2,55.6,30.04,North,5,2.0,3.0,79,0.00,,,0.00,0.0,meteohub,2013-09-06 07:27:00,
2013-09-06 03:32:00,62.2,55.6,30.04,North,5,3.0,3.0,79,0.00,,,0.00,0.0,meteohub,2013-09-06 07:32:00,
2013-09-06 03:37:00,62.2,55.6,30.04,North,5,2.0,3.0,79,0.00,,,0.00,0.0,meteohub,2013-09-06 07:37:00,
2013-09-06 03:42:00,62.2,55.6,30.04,North,11,1.0,3.0,79,0.00,,,0.00,0.0,meteohub,2013-09-06 07:42:00,
2013-09-06 03:47:00,62.2,55.6,30.04,North,11,1.0,3.0,79,0.00,,,0.00,0.0,meteohub,2013-09-06 07:47:00,
2013-09-06 03:52:00,62.2,55.9,30.04,North,11,3.0,3.0,80,0.00,,,0.00,0.0,meteohub,2013-09-06 07:52:00,
2013-09-06 03:57:00,62.2,55.9,30.04,North,11,0.0,3.0,80,0.00,,,0.00,0.0,meteohub,2013-09-06 07:57:00,
2013-09-06 04:02:00,62.1,55.4,30.04,North,11,0.0,3.0,79,0.00,,,0.00,0.0,meteohub,2013-09-06 08:02:00,
2013-09-06 04:07:00,62.1,55.0,30.04,North,11,0.0,3.0,78,0.00,,,0.00,0.0,meteohub,2013-09-06 08:07:00,
2013-09-06 04:12:00,61.9,54.7,30.04,North,11,2.0,2.0,77,0.00,,,0.00,0.0,meteohub,2013-09-06 08:12:00,
2013-09-06 04:17:00,61.9,53.4,30.04,North,11,1.0,3.0,74,0.00,,,0.00,0.0,meteohub,2013-09-06 08:17:00,
2013-09-06 04:22:00,61.9,54.3,30.04,North,11,1.0,3.0,76,0.00,,,0.00,0.0,meteohub,2013-09-06 08:22:00,
2013-09-06 04:27:00,62.1,54.3,30.04,NNE,14,2.0,4.0,76,0.00,,,0.00,0.0,meteohub,2013-09-06 08:27:00,
2013-09-06 04:32:00,62.2,54.5,30.04,North,9,2.0,4.0,76,0.00,,,0.00,0.0,meteohub,2013-09-06 08:32:00,
2013-09-06 04:37:00,62.4,54.7,30.04,North,9,3.0,4.0,76,0.00,,,0.00,0.0,meteohub,2013-09-06 08:37:00,
2013-09-06 04:42:00,62.6,54.5,30.04,NNE,16,3.0,4.0,75,0.00,,,0.00,0.0,meteohub,2013-09-06 08:42:00,
2013-09-06 04:47:00,62.8,54.3,30.04,NNE,25,3.0,4.0,74,0.00,,,0.00,0.0,meteohub,2013-09-06 08:47:00,
2013-09-06 04:52:00,63.0,53.8,30.04,NNE,25,3.0,4.0,72,0.00,,,0.00,0.0,meteohub,2013-09-06 08:52:00,
2013-09-06 04:57:00,63.0,53.1,30.04,NNE,25,3.0,4.0,70,0.00,,,0.00,0.0,meteohub,2013-09-06 08:57:00,
2013-09-06 05:02:00,63.0,53.8,30.04,NNE,25,2.0,4.0,72,0.00,,,0.00,0.0,meteohub,2013-09-06 09:02:00,
2013-09-06 05:07:00,63.0,52.2,30.04,NNE,25,2.0,3.0,68,0.00,,,0.00,0.0,meteohub,2013-09-06 09:07:00,
2013-09-06 05:12:00,63.0,52.7,30.04,NNE,25,2.0,3.0,69,0.00,,,0.00,0.0,meteohub,2013-09-06 09:12:00,
2013-09-06 05:17:00,63.0,52.2,30.04,NNE,25,0.0,3.0,68,0.00,,,0.00,0.0,meteohub,2013-09-06 09:17:00,
2013-09-06 05:22:00,63.0,52.7,30.04,NNE,25,0.0,3.0,69,0.00,,,0.00,0.0,meteohub,2013-09-06 09:22:00,
2013-09-06 05:27:00,62.8,52.0,30.04,NNE,25,0.0,3.0,68,0.00,,,0.00,0.0,meteohub,2013-09-06 09:27:00,
2013-09-06 05:32:00,62.8,51.6,30.05,NNE,25,0.0,2.0,67,0.00,,,0.00,0.0,meteohub,2013-09-06 09:32:00,
2013-09-06 05:37:00,62.6,51.4,30.05,NNE,25,0.0,1.0,67,0.00,,,0.00,0.0,meteohub,2013-09-06 09:37:00,
2013-09-06 05:42:00,62.4,50.9,30.05,NNE,25,0.0,1.0,66,0.00,,,0.00,0.0,meteohub,2013-09-06 09:42:00,
2013-09-06 05:47:00,62.4,52.2,30.05,NNE,25,0.0,1.0,69,0.00,,,0.00,0.0,meteohub,2013-09-06 09:47:00,
2013-09-06 05:52:00,62.2,52.3,30.05,NNE,25,0.0,0.0,70,0.00,,,0.00,0.0,meteohub,2013-09-06 09:52:00,
2013-09-06 05:58:00,62.2,53.1,30.05,NNE,25,0.0,0.0,72,0.00,,,0.00,0.0,meteohub,2013-09-06 09:58:00,
2013-09-06 06:03:00,62.1,53.2,30.05,NNE,25,0.0,2.0,73,0.00,,,0.00,0.0,meteohub,2013-09-06 10:03:00,
2013-09-06 06:08:00,61.9,53.8,30.05,NNE,25,0.0,2.0,75,0.00,,,0.00,0.0,meteohub,2013-09-06 10:08:00,
2013-09-06 06:13:00,61.7,54.1,30.06,NNE,25,0.0,1.0,76,0.00,,,0.00,0.0,meteohub,2013-09-06 10:13:00,
2013-09-06 06:18:00,61.5,54.7,30.06,NNE,25,0.0,1.0,78,0.00,,,0.00,0.0,meteohub,2013-09-06 10:18:00,
2013-09-06 06:23:00,61.3,55.0,30.06,NNE,25,1.0,1.0,80,0.00,,,0.00,0.0,meteohub,2013-09-06 10:23:00,
2013-09-06 06:28:00,61.3,55.4,30.06,NNE,25,1.0,2.0,81,0.00,,,0.00,0.0,meteohub,2013-09-06 10:28:00,
2013-09-06 06:33:00,61.2,55.6,30.06,NNE,25,2.0,2.0,82,0.00,,,0.00,0.0,meteohub,2013-09-06 10:33:00,
2013-09-06 06:38:00,61.2,55.9,30.06,NNE,25,1.0,3.0,83,0.00,,,0.00,0.0,meteohub,2013-09-06 10:38:00,
2013-09-06 06:43:00,61.0,55.8,30.06,NNE,25,2.0,3.0,83,0.00,,,0.00,0.0,meteohub,2013-09-06 10:43:00,
2013-09-06 06:48:00,61.0,55.8,30.06,NNE,25,0.0,3.0,83,0.00,,,0.00,0.0,meteohub,2013-09-06 10:48:00,
2013-09-06 06:53:00,60.8,55.6,30.07,NNE,18,0.0,3.0,83,0.00,,,0.00,0.0,meteohub,2013-09-06 10:53:00,
2013-09-06 06:58:00,60.6,55.8,30.07,NNE,18,0.0,3.0,84,0.00,,,0.00,0.0,meteohub,2013-09-06 10:58:00,
2013-09-06 07:03:00,60.6,55.8,30.07,NNE,18,0.0,3.0,84,0.00,,,0.00,0.0,meteohub,2013-09-06 11:03:00,
2013-09-06 07:08:00,60.6,55.8,30.07,NNE,18,0.0,2.0,84,0.00,,,0.00,0.0,meteohub,2013-09-06 11:08:00,
2013-09-06 07:13:00,60.6,56.1,30.07,NNE,18,0.0,2.0,85,0.00,,,0.00,0.0,meteohub,2013-09-06 11:13:00,
2013-09-06 07:18:00,60.4,55.9,30.07,NNE,18,0.0,2.0,85,0.00,,,0.00,5.0,meteohub,2013-09-06 11:18:00,
2013-09-06 07:24:00,60.4,55.9,30.08,NNE,18,0.0,2.0,85,0.00,,,0.00,7.0,meteohub,2013-09-06 11:24:00,
2013-09-06 07:29:00,60.4,56.3,30.08,NNE,18,0.0,1.0,86,0.00,,,0.00,9.0,meteohub,2013-09-06 11:29:00,
2013-09-06 07:34:00,60.3,56.1,30.08,NNE,18,0.0,1.0,86,0.00,,,0.00,9.0,meteohub,2013-09-06 11:34:00,
2013-09-06 07:39:00,60.3,56.1,30.08,NNE,18,0.0,1.0,86,0.00,,,0.00,11.0,meteohub,2013-09-06 11:39:00,
2013-09-06 07:44:00,60.3,56.3,30.08,NNE,18,0.0,1.0,87,0.00,,,0.00,11.0,meteohub,2013-09-06 11:44:00,
2013-09-06 07:49:00,60.1,56.1,30.08,NNE,18,0.0,1.0,87,0.00,,,0.00,12.0,meteohub,2013-09-06 11:49:00,
2013-09-06 07:54:00,60.1,56.1,30.08,NNE,18,0.0,1.0,87,0.00,,,0.00,14.0,meteohub,2013-09-06 11:54:00,
2013-09-06 07:59:00,59.9,56.3,30.08,NNE,18,0.0,1.0,88,0.00,,,0.00,16.0,meteohub,2013-09-06 11:59:00,
2013-09-06 08:04:00,59.7,56.1,30.08,NNE,18,0.0,1.0,88,0.00,,,0.00,16.0,meteohub,2013-09-06 12:04:00,
2013-09-06 08:09:00,59.7,56.1,30.08,NNE,18,0.0,1.0,88,0.00,,,0.00,19.0,meteohub,2013-09-06 12:09:00,
2013-09-06 08:15:00,59.7,56.5,30.09,NNE,18,0.0,1.0,89,0.00,,,0.00,21.0,meteohub,2013-09-06 12:15:00,
2013-09-06 08:20:00,59.5,56.3,30.08,NNE,18,0.0,1.0,89,0.00,,,0.00,21.0,meteohub,2013-09-06 12:20:00,
2013-09-06 08:25:00,59.5,56.3,30.09,NNE,18,0.0,1.0,89,0.00,,,0.00,25.0,meteohub,2013-09-06 12:25:00,
2013-09-06 08:30:00,59.5,56.3,30.09,NNE,18,0.0,1.0,89,0.00,,,0.00,26.0,meteohub,2013-09-06 12:30:00,
2013-09-06 08:35:00,59.5,56.3,30.09,NNE,18,0.0,1.0,89,0.00,,,0.00,28.0,meteohub,2013-09-06 12:35:00,
2013-09-06 08:40:00,59.5,56.3,30.09,NNE,18,0.0,1.0,89,0.00,,,0.00,28.0,meteohub,2013-09-06 12:40:00,
2013-09-06 08:45:00,59.5,56.3,30.09,NNE,18,0.0,1.0,89,0.00,,,0.00,30.0,meteohub,2013-09-06 12:45:00,
2013-09-06 08:50:00,59.4,56.5,30.09,NNE,18,0.0,2.0,90,0.00,,,0.00,33.0,meteohub,2013-09-06 12:50:00,
2013-09-06 08:55:00,59.5,56.7,30.09,NNE,18,0.0,2.0,90,0.00,,,0.00,35.0,meteohub,2013-09-06 12:55:00,
2013-09-06 09:00:00,59.5,56.7,30.09,NNE,18,0.0,2.0,90,0.00,,,0.00,42.0,meteohub,2013-09-06 13:00:00,
2013-09-06 09:05:00,59.5,56.7,30.09,NNE,18,0.0,0.0,90,0.00,,,0.00,39.0,meteohub,2013-09-06 13:05:00,
2013-09-06 09:10:00,59.5,56.7,30.09,NNE,18,0.0,0.0,90,0.00,,,0.00,70.0,meteohub,2013-09-06 13:10:00,
2013-09-06 09:16:00,59.7,57.0,30.09,NNE,18,0.0,0.0,91,0.00,,,0.00,98.0,meteohub,2013-09-06 13:16:00,
2013-09-06 09:21:00,59.9,57.2,30.10,NNE,18,0.0,0.0,91,0.00,,,0.00,188.0,meteohub,2013-09-06 13:21:00,
2013-09-06 09:26:00,60.3,57.6,30.10,NNE,18,0.0,0.0,91,0.00,,,0.00,135.0,meteohub,2013-09-06 13:26:00,
2013-09-06 09:31:00,60.4,57.7,30.10,NNE,18,0.0,0.0,91,0.00,,,0.00,148.0,meteohub,2013-09-06 13:31:00,
2013-09-06 09:36:00,61.0,58.1,30.10,NNE,18,0.0,0.0,90,0.00,,,0.00,111.0,meteohub,2013-09-06 13:36:00,
2013-09-06 09:41:00,61.3,58.5,30.10,NNE,18,0.0,0.0,90,0.00,,,0.00,420.0,meteohub,2013-09-06 13:41:00,
2013-09-06 09:46:00,61.7,59.0,30.10,NNE,18,0.0,0.0,91,0.00,,,0.00,490.0,meteohub,2013-09-06 13:46:00,
2013-09-06 09:51:00,62.1,59.4,30.10,WSW,257,2.0,0.0,91,0.00,,,0.00,422.0,meteohub,2013-09-06 13:51:00,
2013-09-06 09:56:00,62.8,59.2,30.10,WSW,257,0.0,3.0,88,0.00,,,0.00,396.0,meteohub,2013-09-06 13:56:00,
2013-09-06 10:01:00,63.7,59.7,30.10,WSW,258,1.0,3.0,87,0.00,,,0.00,471.0,meteohub,2013-09-06 14:01:00,
2013-09-06 10:06:00,64.4,60.1,30.10,WSW,258,0.0,3.0,86,0.00,,,0.00,171.0,meteohub,2013-09-06 14:06:00,
2013-09-06 10:11:00,65.1,60.8,30.10,WSW,258,0.0,2.0,86,0.00,,,0.00,376.0,meteohub,2013-09-06 14:11:00,
2013-09-06 10:17:00,65.8,60.6,30.10,WSW,258,2.0,2.0,83,0.00,,,0.00,165.0,meteohub,2013-09-06 14:17:00,
2013-09-06 10:22:00,66.2,61.2,30.10,WSW,258,0.0,2.0,84,0.00,,,0.00,188.0,meteohub,2013-09-06 14:22:00,
2013-09-06 10:27:00,66.7,61.0,30.10,WSW,257,0.0,2.0,82,0.00,,,0.00,587.0,meteohub,2013-09-06 14:27:00,
2013-09-06 10:32:00,67.6,61.0,30.10,WSW,246,0.0,2.0,79,0.00,,,0.00,626.0,meteohub,2013-09-06 14:32:00,
2013-09-06 10:37:00,68.4,60.4,30.10,SSW,200,1.0,1.0,76,0.00,,,0.00,654.0,meteohub,2013-09-06 14:37:00,
2013-09-06 10:42:00,69.3,62.4,30.11,South,176,0.0,3.0,79,0.00,,,0.00,642.0,meteohub,2013-09-06 14:42:00,
2013-09-06 10:47:00,70.0,62.1,30.11,South,176,0.0,3.0,76,0.00,,,0.00,668.0,meteohub,2013-09-06 14:47:00,
2013-09-06 10:52:00,70.9,60.6,30.11,WSW,257,3.0,3.0,70,0.00,,,0.00,666.0,meteohub,2013-09-06 14:52:00,
2013-09-06 10:57:00,71.6,60.8,30.11,SSW,200,2.0,4.0,69,0.00,,,0.00,680.0,meteohub,2013-09-06 14:57:00,
2013-09-06 11:02:00,72.1,61.3,30.11,SSW,198,1.0,4.0,69,0.00,,,0.00,687.0,meteohub,2013-09-06 15:02:00,
2013-09-06 11:07:00,72.7,62.2,30.11,WSW,239,2.0,4.0,70,0.00,,,0.00,700.0,meteohub,2013-09-06 15:07:00,
2013-09-06 11:12:00,73.0,61.5,30.11,SW,214,0.0,5.0,67,0.00,,,0.00,712.0,meteohub,2013-09-06 15:12:00,
2013-09-06 11:17:00,73.4,61.0,30.11,SSW,209,3.0,5.0,65,0.00,,,0.00,712.0,meteohub,2013-09-06 15:17:00,
2013-09-06 11:22:00,73.6,62.8,30.11,SW,232,2.0,6.0,69,0.00,,,0.00,729.0,meteohub,2013-09-06 15:22:00,
2013-09-06 11:27:00,73.9,63.1,30.11,SW,219,0.0,6.0,69,0.00,,,0.00,773.0,meteohub,2013-09-06 15:27:00,
2013-09-06 11:32:00,74.1,62.4,30.11,South,187,1.0,6.0,67,0.00,,,0.00,838.0,meteohub,2013-09-06 15:32:00,
2013-09-06 11:37:00,74.5,61.9,30.12,South,180,0.0,4.0,65,0.00,,,0.00,828.0,meteohub,2013-09-06 15:37:00,
2013-09-06 11:42:00,74.3,62.6,30.11,South,169,2.0,4.0,67,0.00,,,0.00,893.0,meteohub,2013-09-06 15:42:00,
2013-09-06 11:47:00,74.3,62.2,30.12,ESE,119,1.0,3.0,66,0.00,,,0.00,954.0,meteohub,2013-09-06 15:47:00,
2013-09-06 11:52:00,73.9,61.3,30.11,WSW,248,0.0,5.0,65,0.00,,,0.00,174.0,meteohub,2013-09-06 15:52:00,
2013-09-06 11:58:00,73.6,61.2,30.11,SSE,157,1.0,5.0,65,0.00,,,0.00,174.0,meteohub,2013-09-06 15:58:00,
2013-09-06 12:03:00,73.0,61.9,30.11,SW,236,1.0,5.0,68,0.00,,,0.00,306.0,meteohub,2013-09-06 16:03:00,
2013-09-06 12:08:00,72.7,62.8,30.11,SW,225,0.0,5.0,71,0.00,,,0.00,209.0,meteohub,2013-09-06 16:08:00,
2013-09-06 12:13:00,72.5,62.6,30.11,SW,226,0.0,4.0,71,0.00,,,0.00,236.0,meteohub,2013-09-06 16:13:00,
2013-09-06 12:18:00,72.9,63.3,30.11,South,184,1.0,4.0,72,0.00,,,0.00,909.0,meteohub,2013-09-06 16:18:00,
2013-09-06 12:23:00,72.9,62.4,30.10,SW,217,1.0,5.0,70,0.00,,,0.00,151.0,meteohub,2013-09-06 16:23:00,
2013-09-06 12:28:00,72.9,63.0,30.10,SSE,161,2.0,5.0,71,0.00,,,0.00,976.0,meteohub,2013-09-06 16:28:00,
2013-09-06 12:33:00,73.2,63.7,30.10,South,183,0.0,5.0,72,0.00,,,0.00,928.0,meteohub,2013-09-06 16:33:00,
2013-09-06 12:38:00,73.8,63.7,30.10,SSW,208,2.0,4.0,71,0.00,,,0.00,965.0,meteohub,2013-09-06 16:38:00,
2013-09-06 12:43:00,74.1,61.5,30.09,SSW,193,1.0,4.0,65,0.00,,,0.00,944.0,meteohub,2013-09-06 16:43:00,
2013-09-06 12:48:00,74.7,62.1,30.09,SW,214,1.0,3.0,65,0.00,,,0.00,1009.0,meteohub,2013-09-06 16:48:00,
2013-09-06 12:53:00,75.4,64.9,30.09,SSE,167,1.0,3.0,70,0.00,,,0.00,990.0,meteohub,2013-09-06 16:53:00,
2013-09-06 12:58:00,75.9,64.9,30.09,SSW,203,2.0,3.0,69,0.00,,,0.00,1030.0,meteohub,2013-09-06 16:58:00,
2013-09-06 13:03:00,76.5,62.4,30.09,SSW,205,2.0,4.0,62,0.00,,,0.00,1072.0,meteohub,2013-09-06 17:03:00,
2013-09-06 13:08:00,77.0,63.5,30.09,South,178,3.0,5.0,63,0.00,,,0.00,1011.0,meteohub,2013-09-06 17:08:00,
2013-09-06 13:13:00,77.0,64.4,30.09,ENE,69,1.0,5.0,65,0.00,,,0.00,1039.0,meteohub,2013-09-06 17:13:00,
2013-09-06 13:19:00,76.8,62.8,30.09,SW,217,1.0,5.0,62,0.00,,,0.00,413.0,meteohub,2013-09-06 17:19:00,
2013-09-06 13:24:00,76.8,63.7,30.09,WNW,292,0.0,5.0,64,0.00,,,0.00,343.0,meteohub,2013-09-06 17:24:00,
2013-09-06 13:29:00,76.8,63.3,30.08,SW,221,2.0,5.0,63,0.00,,,0.00,983.0,meteohub,2013-09-06 17:29:00,
2013-09-06 13:34:00,77.2,61.7,30.08,South,180,0.0,5.0,59,0.00,,,0.00,974.0,meteohub,2013-09-06 17:34:00,
2013-09-06 13:39:00,77.4,64.2,30.08,WSW,238,1.0,4.0,64,0.00,,,0.00,914.0,meteohub,2013-09-06 17:39:00,
2013-09-06 13:44:00,77.7,63.7,30.08,SE,143,2.0,4.0,62,0.00,,,0.00,1086.0,meteohub,2013-09-06 17:44:00,
2013-09-06 13:49:00,77.7,63.1,30.08,NE,49,0.0,4.0,61,0.00,,,0.00,230.0,meteohub,2013-09-06 17:49:00,
2013-09-06 13:54:00,77.5,63.9,30.08,SSW,192,2.0,4.0,63,0.00,,,0.00,253.0,meteohub,2013-09-06 17:54:00,
2013-09-06 13:59:00,77.4,62.4,30.08,SSW,193,2.0,3.0,60,0.00,,,0.00,218.0,meteohub,2013-09-06 17:59:00,
2013-09-06 14:04:00,76.8,63.3,30.08,SSW,196,0.0,3.0,63,0.00,,,0.00,262.0,meteohub,2013-09-06 18:04:00,
2013-09-06 14:09:00,76.6,65.3,30.07,SSW,196,2.0,2.0,68,0.00,,,0.00,1074.0,meteohub,2013-09-06 18:09:00,
2013-09-06 14:14:00,76.6,63.5,30.07,WSW,244,0.0,2.0,64,0.00,,,0.00,348.0,meteohub,2013-09-06 18:14:00,
2013-09-06 14:19:00,76.5,63.0,30.07,SE,142,0.0,5.0,63,0.00,,,0.00,248.0,meteohub,2013-09-06 18:19:00,
2013-09-06 14:24:00,76.3,62.8,30.07,WSW,258,0.0,5.0,63,0.00,,,0.00,225.0,meteohub,2013-09-06 18:24:00,
2013-09-06 14:30:00,76.1,63.9,30.07,WSW,256,0.0,5.0,66,0.00,,,0.00,272.0,meteohub,2013-09-06 18:30:00,
2013-09-06 14:35:00,76.3,64.9,30.07,ENE,57,1.0,3.0,68,0.00,,,0.00,928.0,meteohub,2013-09-06 18:35:00,
2013-09-06 14:40:00,76.1,64.4,30.07,South,171,1.0,3.0,67,0.00,,,0.00,225.0,meteohub,2013-09-06 18:40:00,
2013-09-06 14:45:00,76.3,64.6,30.07,SW,235,0.0,4.0,67,0.00,,,0.00,225.0,meteohub,2013-09-06 18:45:00,
2013-09-06 14:50:00,76.3,65.3,30.06,SW,215,3.0,4.0,69,0.00,,,0.00,803.0,meteohub,2013-09-06 18:50:00,
2013-09-06 14:55:00,76.3,65.8,30.06,WSW,248,2.0,4.0,70,0.00,,,0.00,241.0,meteohub,2013-09-06 18:55:00,
2013-09-06 15:00:00,76.1,64.4,30.06,West,267,1.0,5.0,67,0.00,,,0.00,153.0,meteohub,2013-09-06 19:00:00,
2013-09-06 15:05:00,75.7,64.4,30.06,ENE,76,0.0,5.0,68,0.00,,,0.00,218.0,meteohub,2013-09-06 19:05:00,
2013-09-06 15:10:00,75.7,65.7,30.06,SSE,162,1.0,5.0,71,0.00,,,0.00,874.0,meteohub,2013-09-06 19:10:00,
2013-09-06 15:15:00,75.6,64.2,30.06,SSE,150,0.0,3.0,68,0.00,,,0.00,163.0,meteohub,2013-09-06 19:15:00,
2013-09-06 15:21:00,75.6,65.5,30.05,SSE,150,0.0,3.0,71,0.00,,,0.00,260.0,meteohub,2013-09-06 19:21:00,
2013-09-06 15:26:00,75.6,64.8,30.05,SW,215,1.0,3.0,69,0.00,,,0.00,149.0,meteohub,2013-09-06 19:26:00,
2013-09-06 15:31:00,75.4,64.6,30.05,SSW,213,0.0,3.0,69,0.00,,,0.00,130.0,meteohub,2013-09-06 19:31:00,
2013-09-06 15:36:00,75.0,64.6,30.04,North,355,0.0,3.0,70,0.00,,,0.00,893.0,meteohub,2013-09-06 19:36:00,
2013-09-06 15:41:00,75.6,66.7,30.04,West,267,0.0,4.0,74,0.00,,,0.00,838.0,meteohub,2013-09-06 19:41:00,
2013-09-06 15:46:00,75.6,64.8,30.04,SSE,163,2.0,7.0,69,0.00,,,0.00,302.0,meteohub,2013-09-06 19:46:00,
2013-09-06 15:51:00,75.7,65.7,30.04,WSW,242,1.0,7.0,71,0.00,,,0.00,875.0,meteohub,2013-09-06 19:51:00,
2013-09-06 15:56:00,75.9,64.9,30.04,SE,134,3.0,7.0,69,0.00,,,0.00,835.0,meteohub,2013-09-06 19:56:00,
2013-09-06 16:01:00,75.9,64.6,30.04,ESE,123,0.0,4.0,68,0.00,,,0.00,295.0,meteohub,2013-09-06 20:01:00,
2013-09-06 16:06:00,75.7,64.8,30.04,ESE,121,0.0,4.0,69,0.00,,,0.00,353.0,meteohub,2013-09-06 20:06:00,
2013-09-06 16:11:00,75.9,64.9,30.04,South,172,0.0,4.0,69,0.00,,,0.00,745.0,meteohub,2013-09-06 20:11:00,
2013-09-06 16:16:00,76.3,64.9,30.04,WSW,238,4.0,4.0,68,0.00,,,0.00,650.0,meteohub,2013-09-06 20:16:00,
2013-09-06 16:22:00,76.3,65.8,30.04,South,182,0.0,6.0,70,0.00,,,0.00,621.0,meteohub,2013-09-06 20:22:00,
2013-09-06 16:27:00,76.6,66.2,30.04,West,259,2.0,6.0,70,0.00,,,0.00,606.0,meteohub,2013-09-06 20:27:00,
2013-09-06 16:32:00,76.6,65.3,30.04,ENE,65,1.0,6.0,68,0.00,,,0.00,596.0,meteohub,2013-09-06 20:32:00,
2013-09-06 16:37:00,76.8,65.5,30.03,South,169,0.0,4.0,68,0.00,,,0.00,612.0,meteohub,2013-09-06 20:37:00,
2013-09-06 16:42:00,77.0,66.0,30.03,ESE,102,5.0,5.0,69,0.00,,,0.00,570.0,meteohub,2013-09-06 20:42:00,
2013-09-06 16:47:00,76.8,65.5,30.03,WSW,239,1.0,5.0,68,0.00,,,0.00,550.0,meteohub,2013-09-06 20:47:00,
2013-09-06 16:52:00,77.0,65.1,30.03,SSW,203,1.0,5.0,67,0.00,,,0.00,538.0,meteohub,2013-09-06 20:52:00,
2013-09-06 16:57:00,77.0,66.0,30.03,SSE,152,0.0,5.0,69,0.00,,,0.00,519.0,meteohub,2013-09-06 20:57:00,
2013-09-06 17:02:00,77.4,66.0,30.03,West,265,2.0,4.0,68,0.00,,,0.00,520.0,meteohub,2013-09-06 21:02:00,
2013-09-06 17:07:00,77.2,65.8,30.03,NE,50,1.0,4.0,68,0.00,,,0.00,482.0,meteohub,2013-09-06 21:07:00,
2013-09-06 17:12:00,77.2,65.8,30.03,SSW,200,2.0,4.0,68,0.00,,,0.00,462.0,meteohub,2013-09-06 21:12:00,
2013-09-06 17:17:00,77.0,65.1,30.03,South,180,0.0,3.0,67,0.00,,,0.00,473.0,meteohub,2013-09-06 21:17:00,
2013-09-06 17:22:00,77.0,65.1,30.03,SSE,152,0.0,3.0,67,0.00,,,0.00,443.0,meteohub,2013-09-06 21:22:00,
2013-09-06 17:27:00,76.8,64.9,30.03,SSW,193,0.0,3.0,67,0.00,,,0.00,84.0,meteohub,2013-09-06 21:27:00,
2013-09-06 17:32:00,76.3,64.9,30.03,SSE,168,1.0,4.0,68,0.00,,,0.00,76.0,meteohub,2013-09-06 21:32:00,
2013-09-06 17:37:00,75.6,64.2,30.03,South,173,0.0,4.0,68,0.00,,,0.00,77.0,meteohub,2013-09-06 21:37:00,
2013-09-06 17:42:00,74.8,63.5,30.02,South,171,2.0,4.0,68,0.00,,,0.00,69.0,meteohub,2013-09-06 21:42:00,
2013-09-06 17:47:00,74.1,63.7,30.02,SE,140,1.0,4.0,70,0.00,,,0.00,63.0,meteohub,2013-09-06 21:47:00,
2013-09-06 17:52:00,73.8,63.7,30.02,SSE,163,1.0,3.0,71,0.00,,,0.00,100.0,meteohub,2013-09-06 21:52:00,
2013-09-06 17:57:00,73.2,63.7,30.03,SSW,213,0.0,3.0,72,0.00,,,0.00,86.0,meteohub,2013-09-06 21:57:00,
2013-09-06 18:02:00,72.9,63.3,30.03,SE,138,2.0,3.0,72,0.00,,,0.00,58.0,meteohub,2013-09-06 22:02:00,
2013-09-06 18:07:00,72.7,63.1,30.03,SSW,195,0.0,5.0,72,0.00,,,0.00,54.0,meteohub,2013-09-06 22:07:00,
2013-09-06 18:12:00,72.1,63.0,30.03,SSW,198,0.0,5.0,73,0.00,,,0.00,54.0,meteohub,2013-09-06 22:12:00,
2013-09-06 18:17:00,72.0,62.8,30.03,South,187,0.0,5.0,73,0.00,,,0.00,51.0,meteohub,2013-09-06 22:17:00,
2013-09-06 18:22:00,71.6,63.0,30.03,South,188,0.0,3.0,74,0.00,,,0.00,67.0,meteohub,2013-09-06 22:22:00,
2013-09-06 18:27:00,71.2,62.6,30.03,South,190,0.0,3.0,74,0.00,,,0.00,46.0,meteohub,2013-09-06 22:27:00,
2013-09-06 18:32:00,71.1,63.1,30.03,South,190,0.0,3.0,76,0.00,,,0.00,44.0,meteohub,2013-09-06 22:32:00,
2013-09-06 18:38:00,70.9,63.7,30.02,South,190,0.0,3.0,78,0.00,,,0.00,39.0,meteohub,2013-09-06 22:38:00,
2013-09-06 18:43:00,70.7,62.8,30.02,South,190,0.0,2.0,76,0.00,,,0.00,37.0,meteohub,2013-09-06 22:43:00,
2013-09-06 18:48:00,70.5,63.0,30.03,South,190,0.0,1.0,77,0.00,,,0.00,35.0,meteohub,2013-09-06 22:48:00,
2013-09-06 18:53:00,70.3,62.8,30.02,South,190,0.0,1.0,77,0.00,,,0.00,35.0,meteohub,2013-09-06 22:53:00,
2013-09-06 18:58:00,70.2,63.0,30.02,South,190,0.0,1.0,78,0.00,,,0.00,32.0,meteohub,2013-09-06 22:58:00,
2013-09-06 19:03:00,70.0,62.8,30.02,South,190,0.0,1.0,78,0.00,,,0.00,26.0,meteohub,2013-09-06 23:03:00,
2013-09-06 19:08:00,69.8,63.0,30.02,South,190,0.0,1.0,79,0.00,,,0.00,23.0,meteohub,2013-09-06 23:08:00,
2013-09-06 19:13:00,69.6,63.1,30.02,South,190,0.0,1.0,80,0.00,,,0.00,21.0,meteohub,2013-09-06 23:13:00,
2013-09-06 19:18:00,69.4,63.0,30.02,South,190,0.0,1.0,80,0.00,,,0.00,18.0,meteohub,2013-09-06 23:18:00,
2013-09-06 19:23:00,69.3,63.1,30.02,South,190,0.0,0.0,81,0.00,,,0.00,14.0,meteohub,2013-09-06 23:23:00,
2013-09-06 19:28:00,69.3,63.1,30.02,South,190,0.0,0.0,81,0.00,,,0.00,12.0,meteohub,2013-09-06 23:28:00,
2013-09-06 19:33:00,69.1,63.0,30.02,South,190,0.0,0.0,81,0.00,,,0.00,9.0,meteohub,2013-09-06 23:33:00,
2013-09-06 19:38:00,68.7,62.6,30.02,South,190,0.0,0.0,81,0.00,,,0.00,5.0,meteohub,2013-09-06 23:38:00,
2013-09-06 19:43:00,68.5,62.4,30.02,South,190,0.0,0.0,81,0.00,,,0.00,0.0,meteohub,2013-09-06 23:43:00,
2013-09-06 19:48:00,68.4,62.6,30.02,South,190,0.0,0.0,82,0.00,,,0.00,0.0,meteohub,2013-09-06 23:48:00,
2013-09-06 19:54:00,68.2,62.4,30.03,South,190,0.0,0.0,82,0.00,,,0.00,0.0,meteohub,2013-09-06 23:54:00,
2013-09-06 19:59:00,67.8,62.1,30.03,South,190,0.0,0.0,82,0.00,,,0.00,0.0,meteohub,2013-09-06 23:59:00,
2013-09-06 20:04:00,67.5,62.1,30.03,South,190,0.0,0.0,83,0.00,,,0.00,0.0,meteohub,2013-09-07 00:04:00,
2013-09-06 20:09:00,67.3,61.9,30.03,South,190,0.0,0.0,83,0.00,,,0.00,0.0,meteohub,2013-09-07 00:09:00,
2013-09-06 20:14:00,66.9,61.9,30.03,South,190,0.0,0.0,84,0.00,,,0.00,0.0,meteohub,2013-09-07 00:14:00,
2013-09-06 20:19:00,66.7,62.1,30.03,South,190,0.0,0.0,85,0.00,,,0.00,0.0,meteohub,2013-09-07 00:19:00,
2013-09-06 20:24:00,66.4,62.1,30.03,South,190,0.0,0.0,86,0.00,,,0.00,0.0,meteohub,2013-09-07 00:24:00,
2013-09-06 20:29:00,66.4,62.1,30.03,South,190,0.0,0.0,86,0.00,,,0.00,0.0,meteohub,2013-09-07 00:29:00,
2013-09-06 20:34:00,66.0,61.7,30.04,South,190,0.0,0.0,86,0.00,,,0.00,0.0,meteohub,2013-09-07 00:34:00,
2013-09-06 20:39:00,66.0,61.7,30.04,South,190,0.0,0.0,86,0.00,,,0.00,0.0,meteohub,2013-09-07 00:39:00,
2013-09-06 20:44:00,65.8,61.5,30.04,South,190,0.0,0.0,86,0.00,,,0.00,0.0,meteohub,2013-09-07 00:44:00,
2013-09-06 20:49:00,65.8,61.5,30.04,South,190,0.0,0.0,86,0.00,,,0.00,0.0,meteohub,2013-09-07 00:49:00,
2013-09-06 20:54:00,65.7,61.3,30.04,South,190,0.0,0.0,86,0.00,,,0.00,0.0,meteohub,2013-09-07 00:54:00,
2013-09-06 20:59:00,65.7,61.7,30.04,South,190,0.0,0.0,87,0.00,,,0.00,0.0,meteohub,2013-09-07 00:59:00,
2013-09-06 21:05:00,65.7,61.7,30.05,South,190,0.0,0.0,87,0.00,,,0.00,0.0,meteohub,2013-09-07 01:05:00,
2013-09-06 21:10:00,65.7,61.7,30.05,South,190,0.0,0.0,87,0.00,,,0.00,0.0,meteohub,2013-09-07 01:10:00,
2013-09-06 21:15:00,65.5,61.5,30.05,South,190,0.0,0.0,87,0.00,,,0.00,0.0,meteohub,2013-09-07 01:15:00,
2013-09-06 21:20:00,65.5,61.9,30.05,South,190,0.0,0.0,88,0.00,,,0.00,0.0,meteohub,2013-09-07 01:20:00,
2013-09-06 21:25:00,65.5,61.9,30.05,South,190,0.0,0.0,88,0.00,,,0.00,0.0,meteohub,2013-09-07 01:25:00,
2013-09-06 21:30:00,65.3,61.7,30.05,South,190,0.0,0.0,88,0.00,,,0.00,0.0,meteohub,2013-09-07 01:30:00,
2013-09-06 21:35:00,65.3,61.7,30.05,South,190,0.0,0.0,88,0.00,,,0.00,0.0,meteohub,2013-09-07 01:35:00,
2013-09-06 21:40:00,65.1,61.5,30.06,South,190,0.0,0.0,88,0.00,,,0.00,0.0,meteohub,2013-09-07 01:40:00,
2013-09-06 21:45:00,65.1,61.5,30.06,South,190,0.0,0.0,88,0.00,,,0.00,0.0,meteohub,2013-09-07 01:45:00,
2013-09-06 21:50:00,64.9,61.3,30.06,South,190,0.0,0.0,88,0.00,,,0.00,0.0,meteohub,2013-09-07 01:50:00,
2013-09-06 21:55:00,64.9,61.3,30.06,South,190,0.0,0.0,88,0.00,,,0.00,0.0,meteohub,2013-09-07 01:55:00,
2013-09-06 22:00:00,64.8,61.2,30.06,South,190,0.0,0.0,88,0.00,,,0.00,0.0,meteohub,2013-09-07 02:00:00,
2013-09-06 22:05:00,64.8,61.2,30.06,South,190,0.0,0.0,88,0.00,,,0.00,0.0,meteohub,2013-09-07 02:05:00,
2013-09-06 22:11:00,64.8,61.2,30.06,South,190,0.0,0.0,88,0.00,,,0.00,0.0,meteohub,2013-09-07 02:11:00,
2013-09-06 22:16:00,64.6,61.0,30.06,South,190,0.0,0.0,88,0.00,,,0.00,0.0,meteohub,2013-09-07 02:16:00,
2013-09-06 22:21:00,64.6,61.0,30.06,South,190,0.0,0.0,88,0.00,,,0.00,0.0,meteohub,2013-09-07 02:21:00,
2013-09-06 22:26:00,64.6,61.3,30.06,South,190,0.0,0.0,89,0.00,,,0.00,0.0,meteohub,2013-09-07 02:26:00,
2013-09-06 22:31:00,64.6,61.0,30.06,South,190,0.0,0.0,88,0.00,,,0.00,0.0,meteohub,2013-09-07 02:31:00,
2013-09-06 22:36:00,64.4,61.2,30.06,South,190,0.0,0.0,89,0.00,,,0.00,0.0,meteohub,2013-09-07 02:36:00,
2013-09-06 22:41:00,64.4,61.2,30.06,South,190,0.0,0.0,89,0.00,,,0.00,0.0,meteohub,2013-09-07 02:41:00,
2013-09-06 22:46:00,64.4,61.2,30.06,South,190,0.0,0.0,89,0.00,,,0.00,0.0,meteohub,2013-09-07 02:46:00,
2013-09-06 22:51:00,64.2,61.0,30.06,South,190,0.0,0.0,89,0.00,,,0.00,0.0,meteohub,2013-09-07 02:51:00,
2013-09-06 22:56:00,64.2,61.0,30.06,South,190,0.0,0.0,89,0.00,,,0.00,0.0,meteohub,2013-09-07 02:56:00,
2013-09-06 23:01:00,64.2,61.0,30.06,South,190,0.0,0.0,89,0.00,,,0.00,0.0,meteohub,2013-09-07 03:01:00,
2013-09-06 23:07:00,64.2,61.0,30.05,South,190,0.0,0.0,89,0.00,,,0.00,0.0,meteohub,2013-09-07 03:07:00,
2013-09-06 23:12:00,64.0,60.8,30.05,South,190,0.0,0.0,89,0.00,,,0.00,0.0,meteohub,2013-09-07 03:12:00,
2013-09-06 23:17:00,64.0,60.8,30.05,South,190,0.0,0.0,89,0.00,,,0.00,0.0,meteohub,2013-09-07 03:17:00,
2013-09-06 23:22:00,63.9,60.6,30.05,South,190,0.0,0.0,89,0.00,,,0.00,0.0,meteohub,2013-09-07 03:22:00,
2013-09-06 23:27:00,63.9,60.6,30.05,South,190,0.0,0.0,89,0.00,,,0.00,0.0,meteohub,2013-09-07 03:27:00,
2013-09-06 23:32:00,63.9,60.6,30.05,South,190,0.0,0.0,89,0.00,,,0.00,0.0,meteohub,2013-09-07 03:32:00,
2013-09-06 23:37:00,63.7,60.4,30.05,South,190,0.0,0.0,89,0.00,,,0.00,0.0,meteohub,2013-09-07 03:37:00,
2013-09-06 23:42:00,63.7,60.4,30.05,South,190,0.0,0.0,89,0.00,,,0.00,0.0,meteohub,2013-09-07 03:42:00,
2013-09-06 23:47:00,63.5,60.3,30.05,South,190,0.0,0.0,89,0.00,,,0.00,0.0,meteohub,2013-09-07 03:47:00,
2013-09-06 23:52:00,63.3,60.1,30.05,South,190,0.0,0.0,89,0.00,,,0.00,0.0,meteohub,2013-09-07 03:52:00,
2013-09-06 23:57:00,63.3,60.1,30.05,South,190,0.0,0.0,89,0.00,,,0.00,0.0,meteohub,2013-09-07 03:57:00,